createdAt,value
2023-05-19T00:00:14.657Z,8.41
2023-05-19T00:02:46.446Z,8.42
2023-05-19T00:05:18.506Z,8.50
2023-05-19T00:07:52.130Z,8.52
2023-05-19T00:10:23.818Z,8.53
2023-05-19T00:12:55.507Z,8.50
2023-05-19T00:15:27.185Z,8.56
2023-05-19T00:17:58.799Z,8.55
2023-05-19T00:20:30.427Z,8.49
2023-05-19T00:23:02.004Z,8.43
2023-05-19T00:25:33.393Z,8.53
2023-05-19T00:28:04.804Z,8.45
2023-05-19T00:30:36.115Z,8.51
2023-05-19T00:33:07.484Z,8.47
2023-05-19T00:35:40.552Z,8.44
2023-05-19T00:38:11.862Z,8.39
2023-05-19T00:40:43.356Z,8.29
2023-05-19T00:43:14.732Z,8.26
2023-05-19T00:45:46.861Z,8.19
2023-05-19T00:48:18.603Z,8.09
2023-05-19T00:50:50.990Z,8.02
2023-05-19T00:53:23.143Z,8.16
2023-05-19T00:55:54.777Z,8.11
2023-05-19T00:58:30.100Z,8.01
2023-05-19T01:01:03.527Z,8.08
2023-05-19T01:03:36.012Z,7.97
2023-05-19T01:06:07.844Z,8.06
2023-05-19T01:08:39.552Z,7.87
2023-05-19T01:11:11.018Z,8.05
2023-05-19T01:13:43.749Z,7.93
2023-05-19T01:16:37.374Z,8.03
2023-05-19T01:19:38.967Z,8.00
2023-05-19T01:22:36.912Z,7.81
2023-05-19T01:25:43.505Z,7.95
2023-05-19T01:28:14.765Z,7.93
2023-05-19T01:30:52.413Z,7.92
2023-05-19T01:33:24.568Z,7.91
2023-05-19T01:35:57.426Z,7.92
2023-05-19T01:38:29.447Z,7.93
2023-05-19T01:41:02.926Z,7.84
2023-05-19T01:43:35.117Z,7.84
2023-05-19T01:46:06.964Z,7.86
2023-05-19T01:48:38.868Z,7.88
2023-05-19T01:51:10.463Z,7.80
2023-05-19T01:53:41.824Z,7.87
2023-05-19T01:56:16.684Z,7.84
2023-05-19T01:58:56.785Z,7.82
2023-05-19T02:01:41.153Z,7.67
2023-05-19T02:04:23.169Z,7.75
2023-05-19T02:07:21.423Z,7.57
2023-05-19T02:10:06.222Z,7.64
2023-05-19T02:12:40.629Z,7.72
2023-05-19T02:15:16.418Z,7.67
2023-05-19T02:17:50.640Z,7.65
2023-05-19T02:20:22.285Z,7.78
2023-05-19T02:22:53.721Z,7.75
2023-05-19T02:25:25.152Z,7.84
2023-05-19T02:27:58.164Z,7.75
2023-05-19T02:30:31.682Z,7.84
2023-05-19T02:33:06.266Z,7.95
2023-05-19T02:35:37.683Z,7.98
2023-05-19T02:38:09.039Z,8.00
2023-05-19T02:40:40.386Z,7.79
2023-05-19T02:43:11.935Z,7.96
2023-05-19T02:46:12.590Z,8.13
2023-05-19T02:48:43.888Z,8.12
2023-05-19T02:51:26.243Z,8.14
2023-05-19T02:53:57.627Z,8.19
2023-05-19T02:56:29.014Z,8.09
2023-05-19T02:59:00.811Z,8.13
2023-05-19T03:01:33.689Z,8.18
2023-05-19T03:04:05.275Z,8.24
2023-05-19T03:06:37.639Z,8.20
2023-05-19T03:09:09.023Z,8.07
2023-05-19T03:11:40.459Z,8.30
2023-05-19T03:14:14.533Z,8.21
2023-05-19T03:16:45.986Z,8.31
2023-05-19T03:19:18.121Z,8.31
2023-05-19T03:21:49.706Z,8.29
2023-05-19T03:24:21.038Z,8.16
2023-05-19T03:26:52.423Z,8.31
2023-05-19T03:29:23.764Z,8.32
2023-05-19T03:31:55.376Z,8.29
2023-05-19T03:34:26.719Z,8.29
2023-05-19T03:36:58.031Z,8.34
2023-05-19T03:39:29.351Z,8.22
2023-05-19T03:42:00.856Z,8.36
2023-05-19T03:44:32.244Z,8.37
2023-05-19T03:47:03.728Z,8.39
2023-05-19T03:49:35.082Z,8.39
2023-05-19T03:52:06.500Z,8.46
2023-05-19T03:54:39.611Z,8.49
2023-05-19T03:57:11.191Z,8.44
2023-05-19T03:59:43.860Z,8.51
2023-05-19T04:02:16.564Z,8.63
2023-05-19T04:04:48.248Z,8.64
2023-05-19T04:07:19.608Z,8.73
2023-05-19T04:09:50.997Z,8.80
2023-05-19T04:12:22.342Z,8.85
2023-05-19T04:14:53.824Z,8.78
2023-05-19T04:17:29.205Z,8.88
2023-05-19T04:20:01.064Z,8.96
2023-05-19T04:22:32.745Z,9.00
2023-05-19T04:25:04.911Z,8.88
2023-05-19T04:27:39.460Z,8.98
2023-05-19T04:30:11.972Z,9.03
2023-05-19T04:32:43.307Z,9.06
2023-05-19T04:35:17.340Z,9.02
2023-05-19T04:37:48.645Z,9.04
2023-05-19T04:40:21.990Z,9.10
2023-05-19T04:42:53.996Z,9.03
2023-05-19T04:45:26.056Z,9.12
2023-05-19T04:47:58.026Z,9.08
2023-05-19T04:50:31.068Z,9.21
2023-05-19T04:53:02.594Z,9.22
2023-05-19T04:55:34.196Z,9.18
2023-05-19T04:58:06.182Z,9.23
2023-05-19T05:00:37.528Z,9.43
2023-05-19T05:03:08.954Z,9.51
2023-05-19T05:05:40.360Z,9.66
2023-05-19T05:08:11.943Z,9.75
2023-05-19T05:10:43.271Z,9.87
2023-05-19T05:13:14.850Z,9.90
2023-05-19T05:15:46.821Z,10.01
2023-05-19T05:18:18.549Z,10.09
2023-05-19T05:20:50.478Z,10.13
2023-05-19T05:23:22.082Z,10.32
2023-05-19T05:25:53.767Z,10.46
2023-05-19T05:28:25.080Z,10.48
2023-05-19T05:30:57.771Z,10.49
2023-05-19T05:33:29.367Z,10.71
2023-05-19T05:36:00.826Z,10.74
2023-05-19T05:38:32.169Z,10.72
2023-05-19T05:41:03.730Z,10.90
2023-05-19T05:43:35.045Z,10.92
2023-05-19T05:46:06.410Z,10.91
2023-05-19T05:48:38.118Z,10.91
2023-05-19T05:51:09.797Z,10.96
2023-05-19T05:53:43.272Z,10.97
2023-05-19T05:56:14.845Z,11.20
2023-05-19T05:58:46.246Z,11.27
2023-05-19T06:01:17.814Z,11.34
2023-05-19T06:03:49.265Z,11.41
2023-05-19T06:06:20.743Z,11.43
2023-05-19T06:08:52.065Z,11.46
2023-05-19T06:11:23.479Z,11.46
2023-05-19T06:13:54.823Z,11.44
2023-05-19T06:16:26.225Z,11.51
2023-05-19T06:18:58.793Z,11.54
2023-05-19T06:21:30.230Z,11.65
2023-05-19T06:24:01.551Z,11.68
2023-05-19T06:26:32.951Z,11.82
2023-05-19T06:29:04.308Z,11.88
2023-05-19T06:31:35.777Z,11.90
2023-05-19T06:34:07.116Z,12.03
2023-05-19T06:36:38.432Z,12.23
2023-05-19T06:39:09.735Z,12.61
2023-05-19T06:41:41.059Z,12.93
2023-05-19T06:44:12.390Z,13.18
2023-05-19T06:46:44.310Z,13.36
2023-05-19T06:49:15.956Z,13.47
2023-05-19T06:51:47.746Z,13.51
2023-05-19T06:54:19.112Z,13.46
2023-05-19T06:56:50.414Z,13.43
2023-05-19T06:59:22.977Z,13.44
2023-05-19T07:01:54.292Z,13.61
2023-05-19T07:04:25.706Z,13.63
2023-05-19T07:06:57.114Z,13.91
2023-05-19T07:09:28.603Z,14.07
2023-05-19T07:12:00.022Z,14.32
2023-05-19T07:14:31.495Z,14.59
2023-05-19T07:17:03.035Z,14.79
2023-05-19T07:19:34.703Z,14.70
2023-05-19T07:22:06.106Z,14.81
2023-05-19T07:24:37.535Z,14.86
2023-05-19T07:27:09.785Z,15.09
2023-05-19T07:29:41.105Z,15.17
2023-05-19T07:32:12.466Z,15.37
2023-05-19T07:34:43.814Z,15.61
2023-05-19T07:37:16.569Z,15.73
2023-05-19T07:39:47.884Z,15.94
2023-05-19T07:42:19.310Z,16.22
2023-05-19T07:44:50.652Z,16.59
2023-05-19T07:47:22.026Z,17.02
2023-05-19T07:49:53.373Z,17.38
2023-05-19T07:52:24.826Z,17.47
2023-05-19T07:54:56.248Z,17.15
2023-05-19T07:57:27.593Z,17.33
2023-05-19T07:59:58.936Z,17.41
2023-05-19T08:02:30.804Z,17.55
2023-05-19T08:05:02.283Z,17.29
2023-05-19T08:07:34.028Z,17.43
2023-05-19T08:10:06.136Z,17.70
2023-05-19T08:12:37.488Z,17.76
2023-05-19T08:15:11.483Z,17.95
2023-05-19T08:17:42.834Z,18.00
2023-05-19T08:20:15.240Z,17.92
2023-05-19T08:22:46.562Z,18.20
2023-05-19T08:25:19.707Z,18.48
2023-05-19T08:27:51.259Z,18.74
2023-05-19T08:30:23.296Z,18.65
2023-05-19T08:32:54.751Z,18.65
2023-05-19T08:35:26.181Z,18.59
2023-05-19T08:37:57.513Z,18.47
2023-05-19T08:40:31.602Z,18.55
2023-05-19T08:43:03.591Z,18.69
2023-05-19T08:45:35.537Z,18.71
2023-05-19T08:48:07.770Z,18.90
2023-05-19T08:50:41.161Z,18.80
2023-05-19T08:53:32.425Z,19.06
2023-05-19T08:56:11.226Z,19.32
2023-05-19T08:58:44.024Z,19.46
2023-05-19T09:01:19.211Z,19.46
2023-05-19T09:03:51.905Z,19.38
2023-05-19T09:06:23.828Z,19.40
2023-05-19T09:08:55.312Z,19.46
2023-05-19T09:11:27.074Z,19.61
2023-05-19T09:13:58.387Z,19.77
2023-05-19T09:16:30.840Z,19.90
2023-05-19T09:19:02.440Z,19.87
2023-05-19T09:21:33.952Z,19.75
2023-05-19T09:24:06.612Z,19.54
2023-05-19T09:26:40.014Z,19.46
2023-05-19T09:29:12.984Z,19.36
2023-05-19T09:31:55.903Z,19.25
2023-05-19T09:34:27.603Z,19.39
2023-05-19T09:36:59.864Z,19.73
2023-05-19T09:39:32.652Z,19.79
2023-05-19T09:42:05.118Z,19.72
2023-05-19T09:44:36.844Z,19.89
2023-05-19T09:47:09.920Z,20.06
2023-05-19T09:49:47.286Z,20.09
2023-05-19T09:52:19.100Z,20.32
2023-05-19T09:54:51.832Z,20.56
2023-05-19T09:57:29.376Z,20.42
2023-05-19T10:00:08.523Z,20.29
2023-05-19T10:02:44.329Z,20.35
2023-05-19T10:05:17.030Z,20.44
2023-05-19T10:07:54.517Z,20.23
2023-05-19T10:10:27.272Z,20.34
2023-05-19T10:12:59.541Z,20.39
2023-05-19T10:15:31.453Z,20.30
2023-05-19T10:18:03.732Z,20.29
2023-05-19T10:20:35.505Z,20.20
2023-05-19T10:23:06.882Z,20.18
2023-05-19T10:25:38.991Z,19.89
2023-05-19T10:28:17.142Z,19.94
2023-05-19T10:30:50.811Z,20.25
2023-05-19T10:33:41.191Z,20.53
2023-05-19T10:36:39.275Z,20.87
2023-05-19T10:39:17.376Z,21.04
2023-05-19T10:42:00.794Z,21.04
2023-05-19T10:45:13.285Z,20.71
2023-05-19T10:47:44.936Z,20.81
2023-05-19T10:50:17.323Z,20.88
2023-05-19T10:52:56.522Z,20.82
2023-05-19T10:55:56.039Z,20.57
2023-05-19T10:58:46.056Z,20.47
2023-05-19T11:01:22.015Z,20.81
2023-05-19T11:03:59.121Z,20.89
2023-05-19T11:06:32.753Z,20.71
2023-05-19T11:09:20.942Z,20.62
2023-05-19T11:11:56.801Z,20.32
2023-05-19T11:14:28.821Z,20.30
2023-05-19T11:17:00.644Z,20.27
2023-05-19T11:19:34.833Z,20.33
2023-05-19T11:22:13.378Z,20.44
2023-05-19T11:24:50.086Z,20.75
2023-05-19T11:27:25.995Z,21.15
2023-05-19T11:29:59.164Z,21.48
2023-05-19T11:32:33.522Z,21.60
2023-05-19T11:35:05.617Z,21.29
2023-05-19T11:37:37.425Z,21.39
2023-05-19T11:40:09.278Z,21.80
2023-05-19T11:42:40.753Z,22.26
2023-05-19T11:45:12.071Z,22.24
2023-05-19T11:48:01.458Z,22.36
2023-05-19T11:50:36.774Z,22.04
2023-05-19T11:53:08.330Z,21.83
2023-05-19T11:55:47.030Z,22.13
2023-05-19T11:58:26.238Z,22.23
2023-05-19T12:00:57.613Z,22.14
2023-05-19T12:03:29.527Z,22.11
2023-05-19T12:06:03.561Z,22.23
2023-05-19T12:08:35.543Z,22.46
2023-05-19T12:11:07.245Z,22.31
2023-05-19T12:13:38.610Z,22.51
2023-05-19T12:16:10.264Z,22.80
2023-05-19T12:18:42.148Z,22.78
2023-05-19T12:21:13.730Z,22.13
2023-05-19T12:23:45.107Z,21.53
2023-05-19T12:26:17.875Z,21.41
2023-05-19T12:28:51.051Z,21.30
2023-05-19T12:31:25.514Z,21.57
2023-05-19T12:33:56.952Z,21.62
2023-05-19T12:36:29.075Z,21.72
2023-05-19T12:39:00.679Z,21.64
2023-05-19T12:41:32.054Z,21.90
2023-05-19T12:44:14.412Z,21.83
2023-05-19T12:46:46.047Z,21.60
2023-05-19T12:49:17.416Z,21.36
2023-05-19T12:51:54.732Z,21.24
2023-05-19T12:54:26.311Z,21.33
2023-05-19T12:56:58.542Z,21.33
2023-05-19T12:59:38.760Z,21.62
2023-05-19T13:02:10.615Z,21.74
2023-05-19T13:04:42.325Z,22.04
2023-05-19T13:07:13.656Z,22.03
2023-05-19T13:09:45.012Z,22.17
2023-05-19T13:12:16.405Z,22.41
2023-05-19T13:14:47.739Z,22.65
2023-05-19T13:17:20.478Z,22.64
2023-05-19T13:19:52.236Z,22.66
2023-05-19T13:22:23.607Z,22.50
2023-05-19T13:24:58.669Z,22.69
2023-05-19T13:27:30.007Z,23.12
2023-05-19T13:30:01.833Z,22.97
2023-05-19T13:32:33.404Z,22.46
2023-05-19T13:35:05.737Z,22.13
2023-05-19T13:37:37.245Z,21.72
2023-05-19T13:40:09.419Z,21.32
2023-05-19T13:42:41.054Z,20.88
2023-05-19T13:45:12.535Z,20.72
2023-05-19T13:47:43.959Z,20.46
2023-05-19T13:50:15.370Z,20.43
2023-05-19T13:52:47.229Z,20.52
2023-05-19T13:55:18.939Z,20.47
2023-05-19T13:57:50.770Z,20.59
2023-05-19T14:00:22.222Z,20.74
2023-05-19T14:02:53.683Z,21.12
2023-05-19T14:05:25.100Z,21.46
2023-05-19T14:07:56.885Z,21.62
2023-05-19T14:10:28.221Z,21.71
2023-05-19T14:15:37.426Z,21.41
2023-05-19T14:18:08.894Z,21.45
2023-05-19T14:20:40.388Z,21.47
2023-05-19T14:23:11.808Z,21.56
2023-05-19T14:25:43.188Z,21.43
2023-05-19T14:28:14.503Z,21.66
2023-05-19T14:30:45.880Z,21.78
2023-05-19T14:33:17.580Z,21.70
2023-05-19T14:35:48.982Z,21.98
2023-05-19T14:38:21.575Z,22.28
2023-05-19T14:40:52.992Z,22.16
2023-05-19T14:43:24.584Z,21.97
2023-05-19T14:45:56.774Z,21.74
2023-05-19T14:48:28.157Z,21.42
2023-05-19T14:50:59.499Z,21.39
2023-05-19T14:53:31.182Z,21.14
2023-05-19T14:58:33.918Z,20.88
2023-05-19T15:01:05.508Z,20.87
2023-05-19T15:03:36.909Z,20.79
2023-05-19T15:06:11.590Z,20.61
2023-05-19T15:08:42.964Z,20.58
2023-05-19T15:11:14.379Z,20.54
2023-05-19T15:13:45.722Z,20.62
2023-05-19T15:16:18.344Z,20.59
2023-05-19T15:18:51.486Z,20.64
2023-05-19T15:21:22.853Z,20.57
2023-05-19T15:23:54.178Z,20.55
2023-05-19T15:26:27.615Z,20.45
2023-05-19T15:29:00.940Z,20.27
2023-05-19T15:31:32.359Z,20.16
2023-05-19T15:34:03.847Z,20.14
2023-05-19T15:36:35.483Z,20.04
2023-05-19T15:39:06.948Z,20.03
2023-05-19T15:41:38.323Z,19.99
2023-05-19T15:44:09.698Z,19.92
2023-05-19T15:46:41.168Z,19.95
2023-05-19T15:49:12.821Z,20.08
2023-05-19T15:51:45.012Z,20.13
2023-05-19T15:54:16.392Z,20.06
2023-05-19T15:56:47.679Z,19.87
2023-05-19T15:59:18.971Z,19.78
2023-05-19T16:01:52.989Z,19.57
2023-05-19T16:04:24.650Z,19.35
2023-05-19T16:06:56.223Z,19.09
2023-05-19T16:09:27.549Z,18.87
2023-05-19T16:11:58.920Z,18.70
2023-05-19T16:14:33.230Z,18.72
2023-05-19T16:17:10.810Z,18.71
2023-05-19T16:19:42.181Z,18.88
2023-05-19T16:22:13.650Z,18.97
2023-05-19T16:24:45.018Z,19.23
2023-05-19T16:27:16.400Z,19.34
2023-05-19T16:29:47.698Z,19.43
2023-05-19T16:32:19.080Z,19.59
2023-05-19T16:34:50.408Z,19.70
2023-05-19T16:37:21.768Z,19.77
2023-05-19T16:39:53.078Z,19.77
2023-05-19T16:42:24.437Z,19.58
2023-05-19T16:44:55.845Z,19.45
2023-05-19T16:47:27.276Z,19.28
2023-05-19T16:49:58.775Z,19.18
2023-05-19T16:52:30.224Z,19.21
2023-05-19T16:55:01.656Z,19.08
2023-05-19T16:57:33.141Z,19.19
2023-05-19T17:00:04.883Z,19.20
2023-05-19T17:02:36.380Z,19.12
2023-05-19T17:05:08.216Z,18.98
2023-05-19T17:07:39.578Z,18.84
2023-05-19T17:10:11.048Z,18.69
2023-05-19T17:12:42.370Z,18.53
2023-05-19T17:15:13.766Z,18.51
2023-05-19T17:17:45.086Z,18.44
2023-05-19T17:20:16.710Z,18.52
2023-05-19T17:22:48.056Z,18.40
2023-05-19T17:25:19.451Z,18.28
2023-05-19T17:27:52.265Z,18.11
2023-05-19T17:30:23.674Z,18.08
2023-05-19T17:32:55.488Z,17.97
2023-05-19T17:35:28.421Z,17.83
2023-05-19T17:38:00.656Z,17.79
2023-05-19T17:40:33.094Z,17.64
2023-05-19T17:43:05.903Z,17.68
2023-05-19T17:45:37.316Z,17.62
2023-05-19T17:48:08.888Z,17.55
2023-05-19T17:50:40.445Z,17.44
2023-05-19T17:53:12.069Z,17.34
2023-05-19T17:55:50.465Z,17.19
2023-05-19T17:58:22.137Z,17.28
2023-05-19T18:00:54.310Z,17.22
2023-05-19T18:03:26.116Z,17.07
2023-05-19T18:05:58.638Z,17.13
2023-05-19T18:08:31.108Z,17.03
2023-05-19T18:11:02.761Z,16.98
2023-05-19T18:13:34.054Z,16.98
2023-05-19T18:16:05.907Z,16.92
2023-05-19T18:18:39.955Z,16.94
2023-05-19T18:21:14.224Z,16.72
2023-05-19T18:23:45.985Z,16.73
2023-05-19T18:26:17.385Z,16.83
2023-05-19T18:28:48.678Z,16.79
2023-05-19T18:31:20.342Z,16.74
2023-05-19T18:33:51.755Z,16.65
2023-05-19T18:36:23.348Z,16.56
2023-05-19T18:38:55.109Z,16.49
2023-05-19T18:41:33.665Z,16.36
2023-05-19T18:44:07.814Z,16.24
2023-05-19T18:46:39.208Z,16.21
2023-05-19T18:49:11.801Z,16.19
2023-05-19T18:51:43.413Z,16.12
2023-05-19T18:54:14.782Z,15.97
2023-05-19T18:56:46.097Z,16.01
2023-05-19T18:59:17.510Z,15.95
2023-05-19T19:01:48.960Z,15.91
2023-05-19T19:04:21.726Z,15.86
2023-05-19T19:06:53.209Z,15.81
2023-05-19T19:09:24.546Z,15.77
2023-05-19T19:11:55.878Z,15.73
2023-05-19T19:14:27.230Z,15.66
2023-05-19T19:16:58.646Z,15.64
2023-05-19T19:19:30.514Z,15.64
2023-05-19T19:22:02.082Z,15.53
2023-05-19T19:24:33.413Z,15.56
2023-05-19T19:27:05.289Z,15.54
2023-05-19T19:29:36.717Z,15.39
2023-05-19T19:32:08.187Z,15.38
2023-05-19T19:34:39.572Z,15.43
2023-05-19T19:37:11.269Z,15.43
2023-05-19T19:39:42.654Z,15.32
2023-05-19T19:42:14.060Z,15.35
2023-05-19T19:44:45.528Z,15.20
2023-05-19T19:47:16.906Z,15.34
2023-05-19T19:49:49.125Z,15.30
2023-05-19T19:52:20.566Z,15.29
2023-05-19T19:54:51.878Z,15.15
2023-05-19T19:57:24.252Z,15.23
2023-05-19T19:59:57.332Z,15.12
2023-05-19T20:02:28.749Z,15.11
2023-05-19T20:05:01.798Z,15.16
2023-05-19T20:07:33.162Z,15.14
2023-05-19T20:10:05.128Z,14.99
2023-05-19T20:12:36.542Z,15.00
2023-05-19T20:15:08.433Z,14.95
2023-05-19T20:17:39.789Z,14.99
2023-05-19T20:20:12.200Z,14.97
2023-05-19T20:22:46.528Z,14.89
2023-05-19T20:25:17.895Z,14.57
2023-05-19T20:27:49.295Z,14.86
2023-05-19T20:30:20.720Z,14.69
2023-05-19T20:32:52.144Z,14.77
2023-05-19T20:35:23.786Z,14.60
2023-05-19T20:37:55.209Z,14.61
2023-05-19T20:40:26.604Z,14.65
2023-05-19T20:42:58.049Z,14.61
2023-05-19T20:45:29.380Z,14.45
2023-05-19T20:48:02.657Z,14.44
2023-05-19T20:50:34.261Z,14.35
2023-05-19T20:53:07.262Z,14.41
2023-05-19T20:55:38.993Z,14.21
2023-05-19T20:58:10.707Z,14.25
2023-05-19T21:00:42.021Z,14.28
2023-05-19T21:03:13.408Z,14.25
2023-05-19T21:05:44.758Z,14.19
2023-05-19T21:08:16.141Z,14.19
2023-05-19T21:10:47.612Z,14.13
2023-05-19T21:13:18.985Z,14.13
2023-05-19T21:15:50.486Z,14.03
2023-05-19T21:18:21.791Z,14.07
2023-05-19T21:20:53.119Z,14.02
2023-05-19T21:23:24.477Z,13.96
2023-05-19T21:25:58.049Z,13.89
2023-05-19T21:28:29.535Z,13.71
2023-05-19T21:31:00.962Z,13.75
2023-05-19T21:33:32.444Z,13.66
2023-05-19T21:36:03.904Z,13.59
2023-05-19T21:38:35.250Z,13.52
2023-05-19T21:41:06.583Z,13.44
2023-05-19T21:43:38.041Z,13.25
2023-05-19T21:46:09.854Z,13.22
2023-05-19T21:48:41.280Z,13.15
2023-05-19T21:51:12.688Z,13.08
2023-05-19T21:53:44.050Z,12.99
2023-05-19T21:56:16.458Z,12.73
2023-05-19T21:58:47.901Z,12.84
2023-05-19T22:01:19.313Z,12.80
2023-05-19T22:03:50.716Z,12.63
2023-05-19T22:06:22.197Z,12.57
2023-05-19T22:08:53.507Z,12.49
2023-05-19T22:11:24.823Z,12.55
2023-05-19T22:13:56.290Z,12.49
2023-05-19T22:16:27.708Z,12.42
2023-05-19T22:18:59.928Z,12.12
2023-05-19T22:21:31.895Z,12.32
2023-05-19T22:24:03.392Z,12.28
2023-05-19T22:26:35.713Z,12.12
2023-05-19T22:29:07.046Z,12.18
2023-05-19T22:31:38.372Z,12.13
2023-05-19T22:34:12.397Z,12.06
2023-05-19T22:36:45.886Z,11.96
2023-05-19T22:39:17.203Z,11.94
2023-05-19T22:41:48.542Z,11.89
2023-05-19T22:44:20.243Z,11.85
2023-05-19T22:46:51.604Z,11.78
2023-05-19T22:49:23.026Z,11.64
2023-05-19T22:51:54.411Z,11.70
2023-05-19T22:54:25.797Z,11.64
2023-05-19T22:56:57.259Z,11.62
2023-05-19T22:59:29.021Z,11.59
2023-05-19T23:02:00.415Z,11.54
2023-05-19T23:04:32.761Z,11.51
2023-05-19T23:07:04.390Z,11.40
2023-05-19T23:09:35.792Z,11.44
2023-05-19T23:12:07.254Z,11.33
2023-05-19T23:14:38.545Z,11.39
2023-05-19T23:17:10.030Z,11.35
2023-05-19T23:19:41.517Z,11.30
2023-05-19T23:22:12.843Z,11.29
2023-05-19T23:24:44.179Z,11.26
2023-05-19T23:27:15.516Z,11.20
2023-05-19T23:29:50.858Z,11.00
2023-05-19T23:32:22.190Z,11.13
2023-05-19T23:34:53.740Z,11.11
2023-05-19T23:37:25.038Z,11.08
2023-05-19T23:39:56.350Z,11.05
2023-05-19T23:42:27.785Z,10.95
2023-05-19T23:44:59.241Z,10.99
2023-05-19T23:47:30.706Z,10.82
2023-05-19T23:50:02.076Z,10.92
2023-05-19T23:52:33.385Z,10.82
2023-05-19T23:55:05.782Z,10.85
2023-05-19T23:57:37.083Z,10.87
